sensor_id;sensor_type;location;lat;lon;timestamp;P1;durP1;ratioP1;P2;durP2;ratioP2
2123;SDS011;1068;52.460;13.528;2023-04-25T00:00:57;5.33;;;2.60;;
2123;SDS011;1068;52.460;13.528;2023-04-25T00:03:24;2.40;;;2.20;;
2123;SDS011;1068;52.460;13.528;2023-04-25T00:05:51;2.73;;;2.53;;
2123;SDS011;1068;52.460;13.528;2023-04-25T00:08:18;3.97;;;2.07;;
2123;SDS011;1068;52.460;13.528;2023-04-25T00:10:46;5.60;;;2.50;;
2123;SDS011;1068;52.460;13.528;2023-04-25T00:13:13;2.57;;;2.10;;
2123;SDS011;1068;52.460;13.528;2023-04-25T00:15:42;2.10;;;1.87;;
2123;SDS011;1068;52.460;13.528;2023-04-25T00:18:09;7.53;;;2.37;;
2123;SDS011;1068;52.460;13.528;2023-04-25T00:20:36;4.30;;;1.90;;
2123;SDS011;1068;52.460;13.528;2023-04-25T00:23:05;2.23;;;1.53;;
2123;SDS011;1068;52.460;13.528;2023-04-25T00:25:32;4.33;;;1.90;;
2123;SDS011;1068;52.460;13.528;2023-04-25T00:28:00;1.83;;;1.47;;
2123;SDS011;1068;52.460;13.528;2023-04-25T00:30:27;3.17;;;1.87;;
2123;SDS011;1068;52.460;13.528;2023-04-25T00:32:56;3.93;;;1.47;;
2123;SDS011;1068;52.460;13.528;2023-04-25T00:35:23;1.83;;;1.50;;
2123;SDS011;1068;52.460;13.528;2023-04-25T00:37:50;2.33;;;2.13;;
2123;SDS011;1068;52.460;13.528;2023-04-25T00:40:17;3.40;;;1.37;;
2123;SDS011;1068;52.460;13.528;2023-04-25T00:42:44;3.30;;;1.73;;
2123;SDS011;1068;52.460;13.528;2023-04-25T00:45:13;2.87;;;1.83;;
2123;SDS011;1068;52.460;13.528;2023-04-25T00:47:40;2.50;;;1.87;;
2123;SDS011;1068;52.460;13.528;2023-04-25T00:50:08;2.53;;;1.70;;
2123;SDS011;1068;52.460;13.528;2023-04-25T00:52:37;2.80;;;1.70;;
2123;SDS011;1068;52.460;13.528;2023-04-25T00:55:04;1.80;;;1.60;;
2123;SDS011;1068;52.460;13.528;2023-04-25T00:57:35;2.10;;;1.40;;
2123;SDS011;1068;52.460;13.528;2023-04-25T01:00:03;3.93;;;1.77;;
2123;SDS011;1068;52.460;13.528;2023-04-25T01:02:32;5.93;;;2.33;;
2123;SDS011;1068;52.460;13.528;2023-04-25T01:05:02;2.50;;;1.60;;
2123;SDS011;1068;52.460;13.528;2023-04-25T01:07:29;3.23;;;1.37;;
2123;SDS011;1068;52.460;13.528;2023-04-25T01:09:56;4.90;;;1.87;;
2123;SDS011;1068;52.460;13.528;2023-04-25T01:12:23;3.33;;;2.33;;
2123;SDS011;1068;52.460;13.528;2023-04-25T01:14:50;4.90;;;3.50;;
2123;SDS011;1068;52.460;13.528;2023-04-25T01:17:17;3.07;;;2.10;;
2123;SDS011;1068;52.460;13.528;2023-04-25T01:19:45;3.07;;;2.07;;
2123;SDS011;1068;52.460;13.528;2023-04-25T01:22:15;2.60;;;2.10;;
2123;SDS011;1068;52.460;13.528;2023-04-25T01:24:42;6.63;;;1.97;;
2123;SDS011;1068;52.460;13.528;2023-04-25T01:27:09;4.30;;;1.97;;
2123;SDS011;1068;52.460;13.528;2023-04-25T01:29:37;3.10;;;1.83;;
2123;SDS011;1068;52.460;13.528;2023-04-25T01:32:04;5.10;;;2.57;;
2123;SDS011;1068;52.460;13.528;2023-04-25T01:34:32;4.67;;;2.60;;
2123;SDS011;1068;52.460;13.528;2023-04-25T01:37:01;6.40;;;2.67;;
2123;SDS011;1068;52.460;13.528;2023-04-25T01:39:29;2.60;;;2.10;;
2123;SDS011;1068;52.460;13.528;2023-04-25T01:41:56;2.83;;;1.80;;
2123;SDS011;1068;52.460;13.528;2023-04-25T01:44:23;3.97;;;2.50;;
2123;SDS011;1068;52.460;13.528;2023-04-25T01:46:51;2.70;;;2.03;;
2123;SDS011;1068;52.460;13.528;2023-04-25T01:49:20;4.07;;;2.20;;
2123;SDS011;1068;52.460;13.528;2023-04-25T01:51:47;4.10;;;2.10;;
2123;SDS011;1068;52.460;13.528;2023-04-25T01:54:14;3.80;;;2.13;;
2123;SDS011;1068;52.460;13.528;2023-04-25T01:56:42;6.53;;;2.40;;
2123;SDS011;1068;52.460;13.528;2023-04-25T01:59:09;4.27;;;2.20;;
2123;SDS011;1068;52.460;13.528;2023-04-25T02:01:36;4.47;;;2.50;;
2123;SDS011;1068;52.460;13.528;2023-04-25T02:04:03;3.17;;;2.03;;
2123;SDS011;1068;52.460;13.528;2023-04-25T02:06:30;3.83;;;2.33;;
2123;SDS011;1068;52.460;13.528;2023-04-25T02:08:57;6.27;;;2.33;;
2123;SDS011;1068;52.460;13.528;2023-04-25T02:11:24;3.80;;;2.67;;
2123;SDS011;1068;52.460;13.528;2023-04-25T02:13:52;4.80;;;1.90;;
2123;SDS011;1068;52.460;13.528;2023-04-25T02:16:19;3.50;;;2.03;;
2123;SDS011;1068;52.460;13.528;2023-04-25T02:18:46;5.53;;;2.40;;
2123;SDS011;1068;52.460;13.528;2023-04-25T02:21:13;2.90;;;1.90;;
2123;SDS011;1068;52.460;13.528;2023-04-25T02:23:40;3.63;;;2.17;;
2123;SDS011;1068;52.460;13.528;2023-04-25T02:26:07;5.00;;;2.30;;
2123;SDS011;1068;52.460;13.528;2023-04-25T02:28:34;3.67;;;2.23;;
2123;SDS011;1068;52.460;13.528;2023-04-25T02:31:02;3.30;;;2.30;;
2123;SDS011;1068;52.460;13.528;2023-04-25T02:33:29;2.53;;;2.33;;
2123;SDS011;1068;52.460;13.528;2023-04-25T02:35:56;4.20;;;2.30;;
2123;SDS011;1068;52.460;13.528;2023-04-25T02:38:23;4.13;;;2.70;;
2123;SDS011;1068;52.460;13.528;2023-04-25T02:40:50;2.43;;;2.23;;
2123;SDS011;1068;52.460;13.528;2023-04-25T02:43:17;2.40;;;2.20;;
2123;SDS011;1068;52.460;13.528;2023-04-25T02:45:44;5.63;;;2.27;;
2123;SDS011;1068;52.460;13.528;2023-04-25T02:48:12;3.40;;;2.40;;
2123;SDS011;1068;52.460;13.528;2023-04-25T02:50:39;3.33;;;2.50;;
2123;SDS011;1068;52.460;13.528;2023-04-25T02:53:05;3.77;;;2.20;;
2123;SDS011;1068;52.460;13.528;2023-04-25T02:55:32;2.83;;;2.53;;
2123;SDS011;1068;52.460;13.528;2023-04-25T02:57:59;2.50;;;2.17;;
2123;SDS011;1068;52.460;13.528;2023-04-25T03:00:26;6.10;;;2.67;;
2123;SDS011;1068;52.460;13.528;2023-04-25T03:02:53;5.77;;;2.77;;
2123;SDS011;1068;52.460;13.528;2023-04-25T03:05:21;7.50;;;3.40;;
2123;SDS011;1068;52.460;13.528;2023-04-25T03:07:48;5.87;;;2.40;;
2123;SDS011;1068;52.460;13.528;2023-04-25T03:10:15;4.60;;;2.70;;
2123;SDS011;1068;52.460;13.528;2023-04-25T03:12:42;2.73;;;2.37;;
2123;SDS011;1068;52.460;13.528;2023-04-25T03:15:09;4.90;;;2.67;;
2123;SDS011;1068;52.460;13.528;2023-04-25T03:17:36;4.57;;;2.47;;
2123;SDS011;1068;52.460;13.528;2023-04-25T03:20:03;2.30;;;2.10;;
2123;SDS011;1068;52.460;13.528;2023-04-25T03:22:32;4.70;;;2.77;;
2123;SDS011;1068;52.460;13.528;2023-04-25T03:24:59;4.37;;;3.20;;
2123;SDS011;1068;52.460;13.528;2023-04-25T03:27:25;3.03;;;2.63;;
2123;SDS011;1068;52.460;13.528;2023-04-25T03:29:52;4.03;;;3.20;;
2123;SDS011;1068;52.460;13.528;2023-04-25T03:32:19;3.50;;;2.80;;
2123;SDS011;1068;52.460;13.528;2023-04-25T03:34:46;3.33;;;3.13;;
2123;SDS011;1068;52.460;13.528;2023-04-25T03:37:13;3.03;;;2.60;;
2123;SDS011;1068;52.460;13.528;2023-04-25T03:39:41;4.63;;;2.90;;
2123;SDS011;1068;52.460;13.528;2023-04-25T03:42:08;3.07;;;2.77;;
2123;SDS011;1068;52.460;13.528;2023-04-25T03:44:35;2.80;;;2.30;;
2123;SDS011;1068;52.460;13.528;2023-04-25T03:47:02;3.40;;;3.10;;
2123;SDS011;1068;52.460;13.528;2023-04-25T03:49:29;4.97;;;2.83;;
2123;SDS011;1068;52.460;13.528;2023-04-25T03:51:56;3.43;;;2.57;;
2123;SDS011;1068;52.460;13.528;2023-04-25T03:54:23;3.27;;;2.90;;
2123;SDS011;1068;52.460;13.528;2023-04-25T03:56:51;7.97;;;2.90;;
2123;SDS011;1068;52.460;13.528;2023-04-25T03:59:18;3.57;;;2.97;;
2123;SDS011;1068;52.460;13.528;2023-04-25T04:01:45;8.27;;;3.70;;
2123;SDS011;1068;52.460;13.528;2023-04-25T04:04:12;4.33;;;2.97;;
2123;SDS011;1068;52.460;13.528;2023-04-25T04:06:38;4.23;;;3.00;;
2123;SDS011;1068;52.460;13.528;2023-04-25T04:09:05;3.90;;;3.17;;
2123;SDS011;1068;52.460;13.528;2023-04-25T04:11:35;2.70;;;2.17;;
2123;SDS011;1068;52.460;13.528;2023-04-25T04:14:04;6.00;;;2.27;;
2123;SDS011;1068;52.460;13.528;2023-04-25T04:16:31;6.30;;;3.10;;
2123;SDS011;1068;52.460;13.528;2023-04-25T04:18:58;5.67;;;2.70;;
2123;SDS011;1068;52.460;13.528;2023-04-25T04:21:25;4.07;;;3.00;;
2123;SDS011;1068;52.460;13.528;2023-04-25T04:23:52;5.63;;;3.53;;
2123;SDS011;1068;52.460;13.528;2023-04-25T04:26:20;6.43;;;2.77;;
2123;SDS011;1068;52.460;13.528;2023-04-25T04:28:48;4.83;;;2.80;;
2123;SDS011;1068;52.460;13.528;2023-04-25T04:31:17;7.40;;;3.70;;
2123;SDS011;1068;52.460;13.528;2023-04-25T04:33:44;3.67;;;3.00;;
2123;SDS011;1068;52.460;13.528;2023-04-25T04:36:11;4.47;;;2.80;;
2123;SDS011;1068;52.460;13.528;2023-04-25T04:38:38;4.87;;;3.53;;
2123;SDS011;1068;52.460;13.528;2023-04-25T04:41:06;4.17;;;3.43;;
2123;SDS011;1068;52.460;13.528;2023-04-25T04:43:33;3.20;;;2.80;;
2123;SDS011;1068;52.460;13.528;2023-04-25T04:46:00;3.43;;;3.10;;
2123;SDS011;1068;52.460;13.528;2023-04-25T04:48:30;3.37;;;3.07;;
2123;SDS011;1068;52.460;13.528;2023-04-25T04:50:59;4.87;;;3.50;;
2123;SDS011;1068;52.460;13.528;2023-04-25T04:53:25;6.23;;;3.70;;
2123;SDS011;1068;52.460;13.528;2023-04-25T04:55:52;4.17;;;3.60;;
2123;SDS011;1068;52.460;13.528;2023-04-25T04:58:19;6.60;;;3.50;;
2123;SDS011;1068;52.460;13.528;2023-04-25T05:00:46;4.77;;;3.50;;
2123;SDS011;1068;52.460;13.528;2023-04-25T05:03:13;5.40;;;3.90;;
2123;SDS011;1068;52.460;13.528;2023-04-25T05:05:42;4.53;;;3.40;;
2123;SDS011;1068;52.460;13.528;2023-04-25T05:08:09;4.27;;;3.20;;
2123;SDS011;1068;52.460;13.528;2023-04-25T05:10:36;4.03;;;3.17;;
2123;SDS011;1068;52.460;13.528;2023-04-25T05:13:03;4.40;;;3.40;;
2123;SDS011;1068;52.460;13.528;2023-04-25T05:15:30;6.57;;;3.80;;
2123;SDS011;1068;52.460;13.528;2023-04-25T05:17:57;5.60;;;4.10;;
2123;SDS011;1068;52.460;13.528;2023-04-25T05:20:24;5.70;;;3.80;;
2123;SDS011;1068;52.460;13.528;2023-04-25T05:22:52;5.63;;;3.37;;
2123;SDS011;1068;52.460;13.528;2023-04-25T05:25:19;3.37;;;3.07;;
2123;SDS011;1068;52.460;13.528;2023-04-25T05:27:46;5.73;;;3.50;;
2123;SDS011;1068;52.460;13.528;2023-04-25T05:30:13;4.63;;;3.17;;
2123;SDS011;1068;52.460;13.528;2023-04-25T05:32:40;5.23;;;3.30;;
2123;SDS011;1068;52.460;13.528;2023-04-25T05:35:07;6.93;;;3.40;;
2123;SDS011;1068;52.460;13.528;2023-04-25T05:37:34;11.70;;;4.10;;
2123;SDS011;1068;52.460;13.528;2023-04-25T05:40:03;4.43;;;3.93;;
2123;SDS011;1068;52.460;13.528;2023-04-25T05:42:31;7.93;;;3.60;;
2123;SDS011;1068;52.460;13.528;2023-04-25T05:44:58;4.00;;;3.50;;
2123;SDS011;1068;52.460;13.528;2023-04-25T05:47:25;4.63;;;3.20;;
2123;SDS011;1068;52.460;13.528;2023-04-25T05:49:52;5.57;;;3.90;;
2123;SDS011;1068;52.460;13.528;2023-04-25T05:52:19;4.73;;;3.80;;
2123;SDS011;1068;52.460;13.528;2023-04-25T05:54:46;10.13;;;4.00;;
2123;SDS011;1068;52.460;13.528;2023-04-25T05:57:20;9.27;;;3.90;;
2123;SDS011;1068;52.460;13.528;2023-04-25T05:59:47;7.63;;;3.60;;
2123;SDS011;1068;52.460;13.528;2023-04-25T06:02:13;4.33;;;3.33;;
2123;SDS011;1068;52.460;13.528;2023-04-25T06:04:41;5.47;;;3.47;;
2123;SDS011;1068;52.460;13.528;2023-04-25T06:07:08;3.87;;;2.80;;
2123;SDS011;1068;52.460;13.528;2023-04-25T06:09:35;4.70;;;3.40;;
2123;SDS011;1068;52.460;13.528;2023-04-25T06:12:04;8.20;;;3.47;;
2123;SDS011;1068;52.460;13.528;2023-04-25T06:14:32;4.07;;;3.40;;
2123;SDS011;1068;52.460;13.528;2023-04-25T06:16:59;6.70;;;3.53;;
2123;SDS011;1068;52.460;13.528;2023-04-25T06:19:31;5.83;;;3.47;;
2123;SDS011;1068;52.460;13.528;2023-04-25T06:21:58;5.93;;;3.77;;
2123;SDS011;1068;52.460;13.528;2023-04-25T06:24:25;7.00;;;4.40;;
2123;SDS011;1068;52.460;13.528;2023-04-25T06:26:52;6.73;;;3.70;;
2123;SDS011;1068;52.460;13.528;2023-04-25T06:29:19;6.00;;;3.90;;
2123;SDS011;1068;52.460;13.528;2023-04-25T06:31:47;5.67;;;3.47;;
2123;SDS011;1068;52.460;13.528;2023-04-25T06:34:14;7.37;;;3.60;;
2123;SDS011;1068;52.460;13.528;2023-04-25T06:36:42;5.03;;;3.77;;
2123;SDS011;1068;52.460;13.528;2023-04-25T06:39:09;4.93;;;4.10;;
2123;SDS011;1068;52.460;13.528;2023-04-25T06:41:36;6.57;;;3.87;;
2123;SDS011;1068;52.460;13.528;2023-04-25T06:44:03;4.97;;;3.67;;
2123;SDS011;1068;52.460;13.528;2023-04-25T06:46:30;7.70;;;3.60;;
2123;SDS011;1068;52.460;13.528;2023-04-25T06:48:59;6.97;;;5.03;;
2123;SDS011;1068;52.460;13.528;2023-04-25T06:51:26;4.03;;;3.73;;
2123;SDS011;1068;52.460;13.528;2023-04-25T06:53:54;5.63;;;4.50;;
2123;SDS011;1068;52.460;13.528;2023-04-25T06:56:21;6.20;;;4.13;;
2123;SDS011;1068;52.460;13.528;2023-04-25T06:58:49;5.90;;;3.70;;
2123;SDS011;1068;52.460;13.528;2023-04-25T07:01:15;5.60;;;3.97;;
2123;SDS011;1068;52.460;13.528;2023-04-25T07:03:42;3.83;;;3.47;;
2123;SDS011;1068;52.460;13.528;2023-04-25T07:06:11;4.40;;;3.97;;
2123;SDS011;1068;52.460;13.528;2023-04-25T07:08:38;7.50;;;4.37;;
2123;SDS011;1068;52.460;13.528;2023-04-25T07:11:05;4.40;;;3.70;;
2123;SDS011;1068;52.460;13.528;2023-04-25T07:13:32;6.07;;;4.70;;
2123;SDS011;1068;52.460;13.528;2023-04-25T07:15:59;5.40;;;4.50;;
2123;SDS011;1068;52.460;13.528;2023-04-25T07:18:26;4.97;;;4.40;;
2123;SDS011;1068;52.460;13.528;2023-04-25T07:20:53;13.63;;;4.10;;
2123;SDS011;1068;52.460;13.528;2023-04-25T07:23:21;4.67;;;3.60;;
2123;SDS011;1068;52.460;13.528;2023-04-25T07:25:48;7.80;;;4.67;;
2123;SDS011;1068;52.460;13.528;2023-04-25T07:28:15;4.60;;;4.17;;
2123;SDS011;1068;52.460;13.528;2023-04-25T07:30:42;7.73;;;3.57;;
2123;SDS011;1068;52.460;13.528;2023-04-25T07:33:09;5.47;;;3.60;;
2123;SDS011;1068;52.460;13.528;2023-04-25T07:35:36;6.23;;;3.83;;
2123;SDS011;1068;52.460;13.528;2023-04-25T07:38:03;11.83;;;4.17;;
2123;SDS011;1068;52.460;13.528;2023-04-25T07:40:32;5.50;;;4.20;;
2123;SDS011;1068;52.460;13.528;2023-04-25T07:43:00;5.80;;;3.90;;
2123;SDS011;1068;52.460;13.528;2023-04-25T07:45:27;3.90;;;3.33;;
2123;SDS011;1068;52.460;13.528;2023-04-25T07:47:54;5.17;;;4.00;;
2123;SDS011;1068;52.460;13.528;2023-04-25T07:50:21;3.73;;;3.33;;
2123;SDS011;1068;52.460;13.528;2023-04-25T07:52:48;4.33;;;3.87;;
2123;SDS011;1068;52.460;13.528;2023-04-25T07:55:15;5.33;;;3.50;;
2123;SDS011;1068;52.460;13.528;2023-04-25T07:57:43;3.27;;;3.07;;
2123;SDS011;1068;52.460;13.528;2023-04-25T08:00:10;4.43;;;3.33;;
2123;SDS011;1068;52.460;13.528;2023-04-25T08:02:37;5.53;;;3.00;;
2123;SDS011;1068;52.460;13.528;2023-04-25T08:05:05;3.10;;;2.80;;
2123;SDS011;1068;52.460;13.528;2023-04-25T08:07:33;3.27;;;2.97;;
2123;SDS011;1068;52.460;13.528;2023-04-25T08:10:00;3.20;;;2.90;;
2123;SDS011;1068;52.460;13.528;2023-04-25T08:12:27;5.07;;;3.20;;
2123;SDS011;1068;52.460;13.528;2023-04-25T08:14:55;5.50;;;3.43;;
2123;SDS011;1068;52.460;13.528;2023-04-25T08:17:22;6.13;;;3.20;;
2123;SDS011;1068;52.460;13.528;2023-04-25T08:19:49;4.35;;;3.22;;
2123;SDS011;1068;52.460;13.528;2023-04-25T08:22:16;7.97;;;3.90;;
2123;SDS011;1068;52.460;13.528;2023-04-25T08:24:43;7.17;;;3.90;;
2123;SDS011;1068;52.460;13.528;2023-04-25T08:27:10;5.50;;;3.57;;
2123;SDS011;1068;52.460;13.528;2023-04-25T08:29:37;4.97;;;3.05;;
2123;SDS011;1068;52.460;13.528;2023-04-25T08:32:06;7.35;;;3.40;;
2123;SDS011;1068;52.460;13.528;2023-04-25T08:34:33;5.03;;;3.03;;
2123;SDS011;1068;52.460;13.528;2023-04-25T08:37:01;8.60;;;3.60;;
2123;SDS011;1068;52.460;13.528;2023-04-25T08:39:29;10.27;;;3.90;;
2123;SDS011;1068;52.460;13.528;2023-04-25T08:41:56;6.18;;;3.50;;
2123;SDS011;1068;52.460;13.528;2023-04-25T08:44:23;11.10;;;4.30;;
2123;SDS011;1068;52.460;13.528;2023-04-25T08:46:50;6.95;;;3.72;;
2123;SDS011;1068;52.460;13.528;2023-04-25T08:49:20;8.10;;;2.90;;
2123;SDS011;1068;52.460;13.528;2023-04-25T08:51:47;8.18;;;3.85;;
2123;SDS011;1068;52.460;13.528;2023-04-25T08:54:15;9.70;;;4.27;;
2123;SDS011;1068;52.460;13.528;2023-04-25T08:56:44;12.35;;;4.40;;
2123;SDS011;1068;52.460;13.528;2023-04-25T08:59:11;9.35;;;4.20;;
2123;SDS011;1068;52.460;13.528;2023-04-25T09:01:38;11.83;;;3.70;;
2123;SDS011;1068;52.460;13.528;2023-04-25T09:04:06;8.83;;;3.73;;
2123;SDS011;1068;52.460;13.528;2023-04-25T09:06:35;7.83;;;4.20;;
2123;SDS011;1068;52.460;13.528;2023-04-25T09:09:02;10.07;;;4.37;;
2123;SDS011;1068;52.460;13.528;2023-04-25T09:11:30;12.23;;;3.97;;
2123;SDS011;1068;52.460;13.528;2023-04-25T09:14:10;9.53;;;3.70;;
2123;SDS011;1068;52.460;13.528;2023-04-25T09:16:43;19.60;;;3.07;;
2123;SDS011;1068;52.460;13.528;2023-04-25T09:19:24;6.60;;;3.40;;
2123;SDS011;1068;52.460;13.528;2023-04-25T09:21:54;6.00;;;2.60;;
2123;SDS011;1068;52.460;13.528;2023-04-25T09:24:29;7.97;;;2.60;;
2123;SDS011;1068;52.460;13.528;2023-04-25T09:26:57;7.68;;;3.22;;
2123;SDS011;1068;52.460;13.528;2023-04-25T09:29:28;6.93;;;2.60;;
2123;SDS011;1068;52.460;13.528;2023-04-25T09:32:06;5.57;;;2.20;;
2123;SDS011;1068;52.460;13.528;2023-04-25T09:34:38;10.27;;;3.60;;
2123;SDS011;1068;52.460;13.528;2023-04-25T09:37:08;7.40;;;2.60;;
2123;SDS011;1068;52.460;13.528;2023-04-25T09:39:35;6.53;;;2.37;;
2123;SDS011;1068;52.460;13.528;2023-04-25T09:42:02;5.97;;;2.10;;
2123;SDS011;1068;52.460;13.528;2023-04-25T09:44:29;8.67;;;2.73;;
2123;SDS011;1068;52.460;13.528;2023-04-25T09:46:56;7.10;;;2.90;;
2123;SDS011;1068;52.460;13.528;2023-04-25T09:49:24;7.57;;;3.53;;
2123;SDS011;1068;52.460;13.528;2023-04-25T09:51:54;8.00;;;3.10;;
2123;SDS011;1068;52.460;13.528;2023-04-25T09:54:24;8.67;;;2.90;;
2123;SDS011;1068;52.460;13.528;2023-04-25T09:56:51;4.80;;;2.60;;
2123;SDS011;1068;52.460;13.528;2023-04-25T09:59:18;8.10;;;2.80;;
2123;SDS011;1068;52.460;13.528;2023-04-25T10:01:46;11.47;;;2.77;;
2123;SDS011;1068;52.460;13.528;2023-04-25T10:04:15;11.37;;;3.03;;
2123;SDS011;1068;52.460;13.528;2023-04-25T10:06:43;7.57;;;2.10;;
2123;SDS011;1068;52.460;13.528;2023-04-25T10:09:12;7.40;;;2.50;;
2123;SDS011;1068;52.460;13.528;2023-04-25T10:11:40;6.40;;;2.60;;
2123;SDS011;1068;52.460;13.528;2023-04-25T10:14:08;6.20;;;2.90;;
2123;SDS011;1068;52.460;13.528;2023-04-25T10:16:36;13.17;;;2.97;;
2123;SDS011;1068;52.460;13.528;2023-04-25T10:19:03;6.73;;;2.90;;
2123;SDS011;1068;52.460;13.528;2023-04-25T10:21:30;4.27;;;1.80;;
2123;SDS011;1068;52.460;13.528;2023-04-25T10:23:58;8.73;;;3.00;;
2123;SDS011;1068;52.460;13.528;2023-04-25T10:26:25;7.73;;;2.20;;
2123;SDS011;1068;52.460;13.528;2023-04-25T10:28:57;5.30;;;2.43;;
2123;SDS011;1068;52.460;13.528;2023-04-25T10:31:24;7.83;;;2.40;;
2123;SDS011;1068;52.460;13.528;2023-04-25T10:33:52;4.80;;;2.33;;
2123;SDS011;1068;52.460;13.528;2023-04-25T10:36:20;4.80;;;2.47;;
2123;SDS011;1068;52.460;13.528;2023-04-25T10:38:47;4.33;;;2.20;;
2123;SDS011;1068;52.460;13.528;2023-04-25T10:41:15;6.63;;;2.50;;
2123;SDS011;1068;52.460;13.528;2023-04-25T10:43:44;13.53;;;3.03;;
2123;SDS011;1068;52.460;13.528;2023-04-25T10:46:14;6.63;;;2.63;;
2123;SDS011;1068;52.460;13.528;2023-04-25T10:48:48;10.40;;;2.80;;
2123;SDS011;1068;52.460;13.528;2023-04-25T10:51:16;9.70;;;2.57;;
2123;SDS011;1068;52.460;13.528;2023-04-25T10:53:44;6.20;;;3.20;;
2123;SDS011;1068;52.460;13.528;2023-04-25T10:56:11;4.20;;;2.43;;
2123;SDS011;1068;52.460;13.528;2023-04-25T10:58:42;6.50;;;1.80;;
2123;SDS011;1068;52.460;13.528;2023-04-25T11:01:09;3.57;;;1.83;;
2123;SDS011;1068;52.460;13.528;2023-04-25T11:03:39;2.33;;;1.70;;
2123;SDS011;1068;52.460;13.528;2023-04-25T11:06:07;8.97;;;2.40;;
2123;SDS011;1068;52.460;13.528;2023-04-25T11:08:41;5.90;;;2.00;;
2123;SDS011;1068;52.460;13.528;2023-04-25T11:11:14;8.27;;;1.90;;
2123;SDS011;1068;52.460;13.528;2023-04-25T11:13:41;4.43;;;2.37;;
2123;SDS011;1068;52.460;13.528;2023-04-25T11:16:08;6.60;;;2.10;;
2123;SDS011;1068;52.460;13.528;2023-04-25T11:18:35;2.93;;;1.97;;
2123;SDS011;1068;52.460;13.528;2023-04-25T11:21:04;5.07;;;2.07;;
2123;SDS011;1068;52.460;13.528;2023-04-25T11:23:32;5.27;;;1.90;;
2123;SDS011;1068;52.460;13.528;2023-04-25T11:25:59;4.33;;;2.53;;
2123;SDS011;1068;52.460;13.528;2023-04-25T11:28:26;8.93;;;2.00;;
2123;SDS011;1068;52.460;13.528;2023-04-25T11:30:53;3.77;;;2.00;;
2123;SDS011;1068;52.460;13.528;2023-04-25T11:33:22;9.60;;;2.30;;
2123;SDS011;1068;52.460;13.528;2023-04-25T11:35:50;7.40;;;2.10;;
2123;SDS011;1068;52.460;13.528;2023-04-25T11:38:18;7.43;;;2.33;;
2123;SDS011;1068;52.460;13.528;2023-04-25T11:40:48;4.37;;;1.70;;
2123;SDS011;1068;52.460;13.528;2023-04-25T11:43:15;4.57;;;1.90;;
2123;SDS011;1068;52.460;13.528;2023-04-25T11:45:45;7.47;;;2.53;;
2123;SDS011;1068;52.460;13.528;2023-04-25T11:48:12;5.70;;;2.10;;
2123;SDS011;1068;52.460;13.528;2023-04-25T11:50:39;8.80;;;2.30;;
2123;SDS011;1068;52.460;13.528;2023-04-25T11:53:06;5.63;;;2.00;;
2123;SDS011;1068;52.460;13.528;2023-04-25T11:55:34;8.70;;;2.43;;
2123;SDS011;1068;52.460;13.528;2023-04-25T11:58:02;9.03;;;2.10;;
2123;SDS011;1068;52.460;13.528;2023-04-25T12:00:30;6.75;;;2.42;;
2123;SDS011;1068;52.460;13.528;2023-04-25T12:02:57;7.80;;;2.13;;
2123;SDS011;1068;52.460;13.528;2023-04-25T12:05:26;4.97;;;2.17;;
2123;SDS011;1068;52.460;13.528;2023-04-25T12:07:53;3.73;;;1.97;;
2123;SDS011;1068;52.460;13.528;2023-04-25T12:10:20;4.60;;;2.00;;
2123;SDS011;1068;52.460;13.528;2023-04-25T12:12:49;7.60;;;2.40;;
2123;SDS011;1068;52.460;13.528;2023-04-25T12:15:16;2.50;;;1.50;;
2123;SDS011;1068;52.460;13.528;2023-04-25T12:17:44;3.83;;;1.57;;
2123;SDS011;1068;52.460;13.528;2023-04-25T12:20:12;4.47;;;1.70;;
2123;SDS011;1068;52.460;13.528;2023-04-25T12:22:40;2.87;;;2.00;;
2123;SDS011;1068;52.460;13.528;2023-04-25T12:25:09;5.33;;;1.93;;
2123;SDS011;1068;52.460;13.528;2023-04-25T12:27:36;5.47;;;2.03;;
2123;SDS011;1068;52.460;13.528;2023-04-25T12:30:07;4.67;;;1.73;;
2123;SDS011;1068;52.460;13.528;2023-04-25T12:32:35;4.40;;;2.03;;
2123;SDS011;1068;52.460;13.528;2023-04-25T12:35:02;5.83;;;1.90;;
2123;SDS011;1068;52.460;13.528;2023-04-25T12:37:29;5.10;;;1.67;;
2123;SDS011;1068;52.460;13.528;2023-04-25T12:39:56;4.23;;;1.70;;
2123;SDS011;1068;52.460;13.528;2023-04-25T12:42:23;5.57;;;1.77;;
2123;SDS011;1068;52.460;13.528;2023-04-25T12:44:50;6.33;;;2.03;;
2123;SDS011;1068;52.460;13.528;2023-04-25T12:47:18;2.53;;;1.90;;
2123;SDS011;1068;52.460;13.528;2023-04-25T12:49:45;6.13;;;2.17;;
2123;SDS011;1068;52.460;13.528;2023-04-25T12:52:13;7.20;;;1.97;;
2123;SDS011;1068;52.460;13.528;2023-04-25T12:54:40;4.20;;;1.90;;
2123;SDS011;1068;52.460;13.528;2023-04-25T12:57:07;4.23;;;2.43;;
2123;SDS011;1068;52.460;13.528;2023-04-25T12:59:34;4.87;;;1.87;;
2123;SDS011;1068;52.460;13.528;2023-04-25T13:02:01;4.33;;;1.70;;
2123;SDS011;1068;52.460;13.528;2023-04-25T13:04:29;5.10;;;2.27;;
2123;SDS011;1068;52.460;13.528;2023-04-25T13:06:56;2.67;;;1.60;;
2123;SDS011;1068;52.460;13.528;2023-04-25T13:09:23;4.70;;;1.60;;
2123;SDS011;1068;52.460;13.528;2023-04-25T13:11:50;4.17;;;1.83;;
2123;SDS011;1068;52.460;13.528;2023-04-25T13:14:17;5.27;;;1.87;;
2123;SDS011;1068;52.460;13.528;2023-04-25T13:16:43;4.10;;;1.40;;
2123;SDS011;1068;52.460;13.528;2023-04-25T13:19:10;5.70;;;1.50;;
2123;SDS011;1068;52.460;13.528;2023-04-25T13:21:39;2.93;;;1.43;;
2123;SDS011;1068;52.460;13.528;2023-04-25T13:24:06;4.17;;;1.70;;
2123;SDS011;1068;52.460;13.528;2023-04-25T13:26:33;7.77;;;1.60;;
2123;SDS011;1068;52.460;13.528;2023-04-25T13:29:00;3.30;;;1.90;;
2123;SDS011;1068;52.460;13.528;2023-04-25T13:31:28;3.73;;;1.80;;
2123;SDS011;1068;52.460;13.528;2023-04-25T13:33:55;2.93;;;1.47;;
2123;SDS011;1068;52.460;13.528;2023-04-25T13:36:22;5.60;;;2.30;;
2123;SDS011;1068;52.460;13.528;2023-04-25T13:38:50;2.30;;;1.47;;
2123;SDS011;1068;52.460;13.528;2023-04-25T13:41:17;1.47;;;1.37;;
2123;SDS011;1068;52.460;13.528;2023-04-25T13:43:45;3.73;;;1.60;;
2123;SDS011;1068;52.460;13.528;2023-04-25T13:46:13;1.63;;;1.47;;
2123;SDS011;1068;52.460;13.528;2023-04-25T13:48:41;4.27;;;1.47;;
2123;SDS011;1068;52.460;13.528;2023-04-25T13:51:11;3.27;;;1.10;;
2123;SDS011;1068;52.460;13.528;2023-04-25T13:53:38;3.13;;;1.27;;
2123;SDS011;1068;52.460;13.528;2023-04-25T13:56:06;2.60;;;1.50;;
2123;SDS011;1068;52.460;13.528;2023-04-25T13:58:33;3.93;;;1.20;;
2123;SDS011;1068;52.460;13.528;2023-04-25T14:01:00;3.60;;;1.37;;
2123;SDS011;1068;52.460;13.528;2023-04-25T14:03:28;2.60;;;1.63;;
2123;SDS011;1068;52.460;13.528;2023-04-25T14:05:55;4.80;;;1.63;;
2123;SDS011;1068;52.460;13.528;2023-04-25T14:08:22;1.47;;;1.20;;
2123;SDS011;1068;52.460;13.528;2023-04-25T14:10:49;3.43;;;1.43;;
2123;SDS011;1068;52.460;13.528;2023-04-25T14:13:17;2.83;;;2.13;;
2123;SDS011;1068;52.460;13.528;2023-04-25T14:15:44;3.30;;;1.63;;
2123;SDS011;1068;52.460;13.528;2023-04-25T14:18:11;2.50;;;1.10;;
2123;SDS011;1068;52.460;13.528;2023-04-25T14:20:37;2.83;;;1.50;;
2123;SDS011;1068;52.460;13.528;2023-04-25T14:23:05;2.13;;;1.27;;
2123;SDS011;1068;52.460;13.528;2023-04-25T14:25:31;7.90;;;1.40;;
2123;SDS011;1068;52.460;13.528;2023-04-25T14:27:58;4.90;;;1.57;;
2123;SDS011;1068;52.460;13.528;2023-04-25T14:30:27;3.33;;;1.47;;
2123;SDS011;1068;52.460;13.528;2023-04-25T14:32:54;6.40;;;1.70;;
2123;SDS011;1068;52.460;13.528;2023-04-25T14:35:21;3.00;;;1.70;;
2123;SDS011;1068;52.460;13.528;2023-04-25T14:37:48;3.03;;;1.50;;
2123;SDS011;1068;52.460;13.528;2023-04-25T14:40:14;4.20;;;1.57;;
2123;SDS011;1068;52.460;13.528;2023-04-25T14:42:42;5.97;;;1.83;;
2123;SDS011;1068;52.460;13.528;2023-04-25T14:45:09;4.80;;;1.50;;
2123;SDS011;1068;52.460;13.528;2023-04-25T14:47:37;4.30;;;1.57;;
2123;SDS011;1068;52.460;13.528;2023-04-25T14:50:05;3.70;;;1.73;;
2123;SDS011;1068;52.460;13.528;2023-04-25T14:52:33;2.87;;;1.50;;
2123;SDS011;1068;52.460;13.528;2023-04-25T14:55:00;2.67;;;1.60;;
2123;SDS011;1068;52.460;13.528;2023-04-25T14:57:29;4.50;;;1.40;;
2123;SDS011;1068;52.460;13.528;2023-04-25T14:59:56;3.40;;;1.40;;
2123;SDS011;1068;52.460;13.528;2023-04-25T15:02:23;1.67;;;1.40;;